Time,TemperatureF,DewpointF,PressureIn,WindDirection,WindDirectionDegrees,WindSpeedMPH,WindSpeedGustMPH,Humidity,HourlyPrecipIn,Conditions,Clouds,dailyrainin,SoftwareType,DateUTC
2013-04-16 00:00:00,38.9,33.9,30.42,SSW,211,0.0,0.0,82,0.00,,,0.00,Wunderground v.1.15,2013-04-16 04:00:00,
2013-04-16 00:01:00,38.8,33.8,30.42,SW,233,1.0,1.0,82,0.00,,,0.00,Wunderground v.1.15,2013-04-16 04:01:00,
2013-04-16 00:04:00,38.7,34.0,30.42,SSW,212,0.0,1.0,83,0.00,,,0.00,Wunderground v.1.15,2013-04-16 04:04:00,
2013-04-16 00:06:00,38.7,34.3,30.42,SW,217,0.0,1.0,84,0.00,,,0.00,Wunderground v.1.15,2013-04-16 04:06:00,
2013-04-16 00:07:00,38.6,34.2,30.42,SSW,194,0.0,1.0,84,0.00,,,0.00,Wunderground v.1.15,2013-04-16 04:07:00,
2013-04-16 00:08:00,38.6,34.2,30.42,SW,233,1.0,1.0,84,0.00,,,0.00,Wunderground v.1.15,2013-04-16 04:08:00,
2013-04-16 00:09:00,38.6,34.2,30.42,SW,221,0.0,1.0,84,0.00,,,0.00,Wunderground v.1.15,2013-04-16 04:09:00,
2013-04-16 00:14:00,38.6,34.5,30.42,SSW,212,1.0,1.0,85,0.00,,,0.00,Wunderground v.1.15,2013-04-16 04:14:00,
2013-04-16 00:16:00,38.6,34.5,30.42,SSW,207,0.0,1.0,85,0.00,,,0.00,Wunderground v.1.15,2013-04-16 04:16:00,
2013-04-16 00:17:00,38.6,34.5,30.42,SSW,207,0.0,1.0,85,0.00,,,0.00,Wunderground v.1.15,2013-04-16 04:17:00,
2013-04-16 00:20:00,38.6,34.5,30.42,West,261,1.0,1.0,85,0.00,,,0.00,Wunderground v.1.15,2013-04-16 04:20:00,
2013-04-16 00:22:00,38.6,34.5,30.42,WSW,252,0.0,1.0,85,0.00,,,0.00,Wunderground v.1.15,2013-04-16 04:22:00,
2013-04-16 00:23:00,38.6,34.5,30.42,WSW,253,0.0,1.0,85,0.00,,,0.00,Wunderground v.1.15,2013-04-16 04:23:00,
2013-04-16 00:25:00,38.5,34.4,30.42,WSW,252,0.0,1.0,85,0.00,,,0.00,Wunderground v.1.15,2013-04-16 04:25:00,
2013-04-16 00:27:00,38.4,34.3,30.42,WSW,247,0.0,1.0,85,0.00,,,0.00,Wunderground v.1.15,2013-04-16 04:27:00,
2013-04-16 00:29:00,38.3,34.2,30.42,WSW,248,0.0,1.0,85,0.00,,,0.00,Wunderground v.1.15,2013-04-16 04:29:00,
2013-04-16 00:32:00,38.2,34.1,30.42,WSW,242,1.0,1.0,85,0.00,,,0.00,Wunderground v.1.15,2013-04-16 04:32:00,
2013-04-16 00:34:00,38.0,33.9,30.42,WSW,242,0.0,1.0,85,0.00,,,0.00,Wunderground v.1.15,2013-04-16 04:34:00,
2013-04-16 00:38:00,37.7,33.6,30.42,WSW,242,0.0,1.0,85,0.00,,,0.00,Wunderground v.1.15,2013-04-16 04:38:00,
2013-04-16 00:39:00,37.7,33.6,30.42,WSW,242,0.0,1.0,85,0.00,,,0.00,Wunderground v.1.15,2013-04-16 04:39:00,
2013-04-16 00:40:00,37.6,33.5,30.42,WSW,242,0.0,0.0,85,0.00,,,0.00,Wunderground v.1.15,2013-04-16 04:40:00,
2013-04-16 00:41:00,37.5,33.4,30.42,WSW,242,0.0,0.0,85,0.00,,,0.00,Wunderground v.1.15,2013-04-16 04:41:00,
2013-04-16 00:43:00,37.3,33.5,30.42,WSW,242,0.0,0.0,86,0.00,,,0.00,Wunderground v.1.15,2013-04-16 04:43:00,
2013-04-16 00:44:00,37.2,33.4,30.42,WSW,242,0.0,0.0,86,0.00,,,0.00,Wunderground v.1.15,2013-04-16 04:44:00,
2013-04-16 00:45:00,37.1,33.3,30.42,WSW,242,0.0,0.0,86,0.00,,,0.00,Wunderground v.1.15,2013-04-16 04:45:00,
2013-04-16 00:49:00,36.9,33.4,30.42,WNW,296,0.0,0.0,87,0.00,,,0.00,Wunderground v.1.15,2013-04-16 04:49:00,
2013-04-16 00:51:00,36.9,33.4,30.42,WNW,297,0.0,0.0,87,0.00,,,0.00,Wunderground v.1.15,2013-04-16 04:51:00,
2013-04-16 00:52:00,36.9,33.4,30.41,WNW,296,0.0,0.0,87,0.00,,,0.00,Wunderground v.1.15,2013-04-16 04:52:00,
2013-04-16 00:53:00,36.8,33.3,30.42,WNW,296,0.0,0.0,87,0.00,,,0.00,Wunderground v.1.15,2013-04-16 04:53:00,
2013-04-16 00:56:00,36.7,33.2,30.42,WNW,296,0.0,0.0,87,0.00,,,0.00,Wunderground v.1.15,2013-04-16 04:56:00,
2013-04-16 00:57:00,36.7,33.5,30.42,WNW,297,0.0,0.0,88,0.00,,,0.00,Wunderground v.1.15,2013-04-16 04:57:00,
2013-04-16 00:59:00,36.7,33.5,30.42,WNW,291,0.0,0.0,88,0.00,,,0.00,Wunderground v.1.15,2013-04-16 04:59:00,
2013-04-16 01:00:00,36.7,33.5,30.42,WNW,291,0.0,0.0,88,0.00,,,0.00,Wunderground v.1.15,2013-04-16 05:00:00,
2013-04-16 21:49:00,53.6,48.9,30.15,WNW,300,4.0,5.0,84,0.00,,,0.00,Wunderground v.1.15,2013-04-17 01:49:00,
2013-04-16 21:50:00,53.6,48.9,30.15,NW,323,6.0,6.0,84,0.00,,,0.00,Wunderground v.1.15,2013-04-17 01:50:00,
2013-04-16 21:55:00,53.6,48.9,30.16,NNW,338,9.0,9.0,84,0.00,,,0.00,Wunderground v.1.15,2013-04-17 01:55:00,
2013-04-16 21:56:00,53.6,48.9,30.16,North,352,12.0,12.0,84,0.00,,,0.00,Wunderground v.1.15,2013-04-17 01:56:00,
2013-04-16 22:00:00,53.6,48.9,30.16,NW,315,5.0,8.0,84,0.00,,,0.00,Wunderground v.1.15,2013-04-17 02:00:00,
2013-04-16 22:01:00,53.6,48.9,30.16,WNW,301,5.0,8.0,84,0.00,,,0.00,Wunderground v.1.15,2013-04-17 02:01:00,
2013-04-16 22:02:00,53.6,48.9,30.15,NW,323,5.0,8.0,84,0.00,,,0.00,Wunderground v.1.15,2013-04-17 02:02:00,
2013-04-16 22:05:00,53.6,48.9,30.16,NW,316,6.0,10.0,84,0.00,,,0.00,Wunderground v.1.15,2013-04-17 02:05:00,
2013-04-16 22:06:00,53.6,48.9,30.16,NW,307,8.0,10.0,84,0.00,,,0.00,Wunderground v.1.15,2013-04-17 02:06:00,
2013-04-16 22:07:00,53.6,48.9,30.15,NW,323,2.0,10.0,84,0.00,,,0.00,Wunderground v.1.15,2013-04-17 02:07:00,
2013-04-16 22:10:00,53.6,48.9,30.15,NNW,342,5.0,5.0,84,0.00,,,0.00,Wunderground v.1.15,2013-04-17 02:10:00,
2013-04-16 22:11:00,53.6,48.9,30.15,WSW,254,3.0,12.0,84,0.00,,,0.00,Wunderground v.1.15,2013-04-17 02:11:00,
2013-04-16 22:12:00,53.6,48.9,30.15,WNW,301,4.0,12.0,84,0.00,,,0.00,Wunderground v.1.15,2013-04-17 02:12:00,
2013-04-16 22:13:00,53.5,48.8,30.15,NNW,337,5.0,12.0,84,0.00,,,0.00,Wunderground v.1.15,2013-04-17 02:13:00,
2013-04-16 22:15:00,53.5,48.8,30.15,NW,304,0.0,12.0,84,0.00,,,0.00,Wunderground v.1.15,2013-04-17 02:15:00,
2013-04-16 22:17:00,53.5,48.8,30.15,NNW,332,4.0,12.0,84,0.00,,,0.00,Wunderground v.1.15,2013-04-17 02:17:00,
2013-04-16 22:18:00,53.5,48.8,30.15,NW,310,4.0,12.0,84,0.00,,,0.00,Wunderground v.1.15,2013-04-17 02:18:00,
2013-04-16 22:20:00,53.5,49.1,30.15,NNW,328,2.0,5.0,85,0.00,,,0.00,Wunderground v.1.15,2013-04-17 02:20:00,
2013-04-16 22:22:00,53.5,49.1,30.15,WNW,285,4.0,8.0,85,0.00,,,0.00,Wunderground v.1.15,2013-04-17 02:22:00,
2013-04-16 22:23:00,53.5,49.1,30.15,NNE,20,11.0,11.0,85,0.00,,,0.00,Wunderground v.1.15,2013-04-17 02:23:00,
2013-04-16 22:26:00,53.4,49.0,30.15,NW,320,4.0,13.0,85,0.00,,,0.00,Wunderground v.1.15,2013-04-17 02:26:00,
2013-04-16 22:28:00,53.4,49.0,30.15,NW,310,2.0,13.0,85,0.00,,,0.00,Wunderground v.1.15,2013-04-17 02:28:00,
2013-04-16 22:31:00,53.4,49.0,30.14,WNW,283,7.0,8.0,85,0.00,,,0.00,Wunderground v.1.15,2013-04-17 02:31:00,
2013-04-16 22:33:00,53.4,49.0,30.14,NNW,347,8.0,10.0,85,0.00,,,0.00,Wunderground v.1.15,2013-04-17 02:33:00,
2013-04-16 22:37:00,53.3,48.9,30.14,WNW,290,1.0,13.0,85,0.00,,,0.00,Wunderground v.1.15,2013-04-17 02:37:00,
2013-04-16 22:38:00,53.3,48.9,30.14,North,354,6.0,13.0,85,0.00,,,0.00,Wunderground v.1.15,2013-04-17 02:38:00,
2013-04-16 22:42:00,53.4,49.0,30.14,NNW,327,9.0,16.0,85,0.00,,,0.00,Wunderground v.1.15,2013-04-17 02:42:00,
2013-04-16 22:43:00,53.4,49.0,30.15,NW,326,8.0,16.0,85,0.00,,,0.00,Wunderground v.1.15,2013-04-17 02:43:00,
2013-04-16 22:44:00,53.4,49.0,30.15,NW,311,11.0,16.0,85,0.00,,,0.00,Wunderground v.1.15,2013-04-17 02:44:00,
2013-04-16 22:47:00,53.5,49.1,30.14,WNW,286,4.0,16.0,85,0.00,,,0.00,Wunderground v.1.15,2013-04-17 02:47:00,
2013-04-16 22:48:00,53.6,49.2,30.14,NW,309,5.0,16.0,85,0.00,,,0.00,Wunderground v.1.15,2013-04-17 02:48:00,
2013-04-16 22:49:00,53.6,49.2,30.14,NW,315,3.0,16.0,85,0.00,,,0.00,Wunderground v.1.15,2013-04-17 02:49:00,
2013-04-16 22:53:00,53.6,49.2,30.14,WNW,287,8.0,14.0,85,0.00,,,0.00,Wunderground v.1.15,2013-04-17 02:53:00,
2013-04-16 22:54:00,53.6,49.2,30.14,NNW,335,2.0,14.0,85,0.00,,,0.00,Wunderground v.1.15,2013-04-17 02:54:00,
2013-04-16 22:58:00,53.6,49.2,30.14,North,355,2.0,14.0,85,0.00,,,0.00,Wunderground v.1.15,2013-04-17 02:58:00,
2013-04-16 22:59:00,53.6,49.2,30.14,NW,315,7.0,14.0,85,0.00,,,0.00,Wunderground v.1.15,2013-04-17 02:59:00,
2013-04-16 23:03:00,53.6,49.2,30.14,NW,319,3.0,11.0,85,0.00,,,0.00,Wunderground v.1.15,2013-04-17 03:03:00,
2013-04-16 23:04:00,53.6,49.2,30.15,North,354,3.0,11.0,85,0.00,,,0.00,Wunderground v.1.15,2013-04-17 03:04:00,
2013-04-16 23:08:00,53.7,49.3,30.14,WNW,295,4.0,11.0,85,0.00,,,0.00,Wunderground v.1.15,2013-04-17 03:08:00,
2013-04-16 23:09:00,53.7,49.3,30.14,SW,229,1.0,11.0,85,0.00,,,0.00,Wunderground v.1.15,2013-04-17 03:09:00,
2013-04-16 23:13:00,53.7,49.3,30.14,WSW,257,9.0,14.0,85,0.00,,,0.00,Wunderground v.1.15,2013-04-17 03:13:00,
2013-04-16 23:14:00,53.7,49.3,30.14,WSW,257,4.0,14.0,85,0.00,,,0.00,Wunderground v.1.15,2013-04-17 03:14:00,
2013-04-16 23:19:00,53.7,49.3,30.14,NNE,23,5.0,14.0,85,0.00,,,0.00,Wunderground v.1.15,2013-04-17 03:19:00,
2013-04-16 23:20:00,53.7,49.3,30.14,SW,231,5.0,5.0,85,0.00,,,0.00,Wunderground v.1.15,2013-04-17 03:20:00,
2013-04-16 23:24:00,53.7,49.3,30.14,WNW,300,4.0,11.0,85,0.00,,,0.00,Wunderground v.1.15,2013-04-17 03:24:00,
2013-04-16 23:25:00,53.7,49.3,30.14,NNW,332,3.0,11.0,85,0.00,,,0.00,Wunderground v.1.15,2013-04-17 03:25:00,
2013-04-16 23:29:00,53.7,49.3,30.14,NNW,338,5.0,16.0,85,0.00,,,0.00,Wunderground v.1.15,2013-04-17 03:29:00,
2013-04-16 23:30:00,53.7,49.3,30.14,NW,308,6.0,8.0,85,0.00,,,0.00,Wunderground v.1.15,2013-04-17 03:30:00,
2013-04-16 23:34:00,53.7,49.3,30.13,WSW,254,2.0,9.0,85,0.00,,,0.00,Wunderground v.1.15,2013-04-17 03:34:00,
2013-04-16 23:35:00,53.7,49.3,30.13,NW,320,5.0,9.0,85,0.00,,,0.00,Wunderground v.1.15,2013-04-17 03:35:00,
2013-04-16 23:39:00,53.7,49.3,30.13,NNE,23,1.0,9.0,85,0.00,,,0.00,Wunderground v.1.15,2013-04-17 03:39:00,
2013-04-16 23:40:00,53.7,49.3,30.13,NNW,330,4.0,10.0,85,0.00,,,0.00,Wunderground v.1.15,2013-04-17 03:40:00,
2013-04-16 23:41:00,53.7,49.3,30.13,NNW,340,3.0,10.0,85,0.00,,,0.00,Wunderground v.1.15,2013-04-17 03:41:00,
2013-04-16 23:44:00,53.8,49.4,30.13,WNW,298,3.0,10.0,85,0.00,,,0.00,Wunderground v.1.15,2013-04-17 03:44:00,
2013-04-16 23:46:00,53.8,49.4,30.13,WNW,288,2.0,10.0,85,0.00,,,0.00,Wunderground v.1.15,2013-04-17 03:46:00,
2013-04-16 23:49:00,53.8,49.4,30.13,NW,305,8.0,10.0,85,0.00,,,0.00,Wunderground v.1.15,2013-04-17 03:49:00,
2013-04-16 23:51:00,53.8,49.4,30.13,NNW,330,5.0,8.0,85,0.00,,,0.00,Wunderground v.1.15,2013-04-17 03:51:00,
2013-04-16 23:54:00,53.8,49.4,30.13,West,276,1.0,10.0,85,0.00,,,0.00,Wunderground v.1.15,2013-04-17 03:54:00,
2013-04-16 23:55:00,53.8,49.4,30.13,North,352,4.0,10.0,85,0.00,,,0.00,Wunderground v.1.15,2013-04-17 03:55:00,
2013-04-16 23:56:00,53.7,49.3,30.13,NW,304,2.0,10.0,85,0.00,,,0.00,Wunderground v.1.15,2013-04-17 03:56:00,
2013-04-16 23:57:00,53.7,49.3,30.13,WNW,297,4.0,10.0,85,0.00,,,0.00,Wunderground v.1.15,2013-04-17 03:57:00,
2013-04-16 23:59:00,53.7,49.3,30.13,West,276,9.0,12.0,85,0.00,,,0.00,Wunderground v.1.15,2013-04-17 03:59:00,